Time,TemperatureF,DewpointF,PressureIn,WindDirection,WindDirectionDegrees,WindSpeedMPH,WindSpeedGustMPH,Humidity,HourlyPrecipIn,Conditions,Clouds,dailyrainin,SoftwareType,DateUTC
2013-02-13 00:05:00,23.1,6.0,30.18,SW,223,0.0,1.0,49,0.00,,,0.00,weatherlink.com 1.10,2013-02-13 07:05:00,
2013-02-13 00:20:00,23.1,7.0,30.18,SW,227,0.0,2.0,50,0.00,,,0.00,weatherlink.com 1.10,2013-02-13 07:20:00,
2013-02-13 00:35:00,23.0,7.0,30.18,SW,227,0.0,1.0,51,0.00,,,0.00,weatherlink.com 1.10,2013-02-13 07:35:00,
2013-02-13 00:50:00,23.1,7.0,30.18,SW,226,0.0,2.0,50,0.00,,,0.00,weatherlink.com 1.10,2013-02-13 07:50:00,
2013-02-13 01:05:00,22.9,8.0,30.17,SW,227,0.0,2.0,53,0.00,,,0.00,weatherlink.com 1.10,2013-02-13 08:05:00,
2013-02-13 01:20:00,23.1,8.0,30.17,WSW,244,0.0,1.0,53,0.00,,,0.00,weatherlink.com 1.10,2013-02-13 08:20:00,
2013-02-13 01:35:00,22.5,8.0,30.16,WSW,244,0.0,2.0,54,0.00,,,0.00,weatherlink.com 1.10,2013-02-13 08:35:00,
2013-02-13 01:50:00,22.7,8.0,30.16,WSW,244,0.0,0.0,53,0.00,,,0.00,weatherlink.com 1.10,2013-02-13 08:50:00,
2013-02-13 02:05:00,22.8,7.0,30.15,WSW,244,1.0,1.0,52,0.00,,,0.00,weatherlink.com 1.10,2013-02-13 09:05:00,
2013-02-13 02:20:00,22.4,7.0,30.14,WSW,244,0.0,2.0,52,0.00,,,0.00,weatherlink.com 1.10,2013-02-13 09:20:00,
2013-02-13 02:35:00,22.0,8.0,30.13,WSW,244,1.0,2.0,54,0.00,,,0.00,weatherlink.com 1.10,2013-02-13 09:35:00,
2013-02-13 02:50:00,22.4,8.0,30.11,WSW,244,0.0,2.0,53,0.00,,,0.00,weatherlink.com 1.10,2013-02-13 09:50:00,
2013-02-13 03:05:00,22.6,7.0,30.10,West,273,0.0,3.0,51,0.00,,,0.00,weatherlink.com 1.10,2013-02-13 10:05:00,
2013-02-13 03:20:00,22.9,6.0,30.10,West,264,0.0,2.0,49,0.00,,,0.00,weatherlink.com 1.10,2013-02-13 10:20:00,
2013-02-13 03:35:00,22.7,6.0,30.10,South,173,1.0,3.0,49,0.00,,,0.00,weatherlink.com 1.10,2013-02-13 10:35:00,
2013-02-13 03:50:00,22.2,6.0,30.09,SW,230,0.0,3.0,51,0.00,,,0.00,weatherlink.com 1.10,2013-02-13 10:50:00,
2013-02-13 04:06:00,21.7,6.0,30.10,SW,215,1.0,2.0,52,0.00,,,0.00,weatherlink.com 1.10,2013-02-13 11:06:00,
2013-02-13 04:21:00,21.7,7.0,30.10,SW,234,0.0,3.0,53,0.00,,,0.00,weatherlink.com 1.10,2013-02-13 11:21:00,
2013-02-13 04:35:00,21.3,7.0,30.09,SW,234,0.0,2.0,54,0.00,,,0.00,weatherlink.com 1.10,2013-02-13 11:35:00,
2013-02-13 04:50:00,21.1,7.0,30.09,SW,218,0.0,3.0,55,0.00,,,0.00,weatherlink.com 1.10,2013-02-13 11:50:00,
2013-02-13 05:05:00,21.2,7.0,30.09,South,191,2.0,4.0,55,0.00,,,0.00,weatherlink.com 1.10,2013-02-13 12:05:00,
2013-02-13 05:21:00,21.5,8.0,30.08,South,189,0.0,2.0,55,0.00,,,0.00,weatherlink.com 1.10,2013-02-13 12:21:00,
2013-02-13 05:35:00,21.6,8.0,30.09,WSW,241,0.0,2.0,55,0.00,,,0.00,weatherlink.com 1.10,2013-02-13 12:35:00,
2013-02-13 05:51:00,21.1,8.0,30.07,SE,137,2.0,3.0,57,0.00,,,0.00,weatherlink.com 1.10,2013-02-13 12:51:00,
2013-02-13 06:06:00,21.7,8.0,30.06,SE,144,0.0,2.0,56,0.00,,,0.00,weatherlink.com 1.10,2013-02-13 13:06:00,
2013-02-13 06:21:00,21.7,8.0,30.05,SE,144,1.0,1.0,56,0.00,,,0.00,weatherlink.com 1.10,2013-02-13 13:21:00,
2013-02-13 06:36:00,28.7,9.0,30.05,SE,144,2.0,7.0,43,0.00,,,0.00,weatherlink.com 1.10,2013-02-13 13:36:00,
2013-02-13 06:51:00,27.8,8.0,30.04,SSW,195,3.0,4.0,44,0.00,,,0.00,weatherlink.com 1.10,2013-02-13 13:51:00,
2013-02-13 07:06:00,27.8,8.0,30.04,SSW,196,0.0,4.0,43,0.00,,,0.00,weatherlink.com 1.10,2013-02-13 14:06:00,
2013-02-13 07:21:00,27.9,8.0,30.04,SSE,160,1.0,3.0,43,0.00,,,0.00,weatherlink.com 1.10,2013-02-13 14:21:00,
2013-02-13 07:51:00,28.9,9.0,30.05,SE,141,0.0,3.0,43,0.00,,,0.00,weatherlink.com 1.10,2013-02-13 14:51:00,
2013-02-13 08:06:00,28.9,9.0,30.05,SSE,147,4.0,4.0,43,0.00,,,0.00,weatherlink.com 1.10,2013-02-13 15:06:00,
2013-02-13 08:21:00,29.9,10.0,30.06,SSE,153,0.0,1.0,44,0.00,,,0.00,weatherlink.com 1.10,2013-02-13 15:21:00,
2013-02-13 08:36:00,32.5,12.0,30.06,SSE,148,0.0,3.0,42,0.00,,,0.00,weatherlink.com 1.10,2013-02-13 15:36:00,
2013-02-13 08:51:00,39.4,8.0,30.05,NW,316,5.0,13.0,27,0.00,,,0.00,weatherlink.com 1.10,2013-02-13 15:51:00,
2013-02-13 09:06:00,40.8,7.0,30.03,NNW,348,3.0,13.0,25,0.00,,,0.00,weatherlink.com 1.10,2013-02-13 16:06:00,
2013-02-13 09:21:00,42.5,7.0,30.03,WNW,298,1.0,9.0,23,0.00,,,0.00,weatherlink.com 1.10,2013-02-13 16:21:00,
2013-02-13 09:36:00,43.9,10.0,30.03,East,79,1.0,5.0,25,0.00,,,0.00,weatherlink.com 1.10,2013-02-13 16:36:00,
2013-02-13 09:52:00,45.2,6.0,30.03,NW,305,9.0,13.0,20,0.00,,,0.00,weatherlink.com 1.10,2013-02-13 16:52:00,
2013-02-13 10:07:00,46.7,5.0,30.03,NW,311,12.0,18.0,18,0.00,,,0.00,weatherlink.com 1.10,2013-02-13 17:07:00,
2013-02-13 10:22:00,44.2,5.0,30.05,NNE,14,9.0,16.0,20,0.00,,,0.00,weatherlink.com 1.10,2013-02-13 17:22:00,
2013-02-13 10:36:00,43.0,5.0,30.06,NW,323,8.0,19.0,21,0.00,,,0.00,weatherlink.com 1.10,2013-02-13 17:36:00,
2013-02-13 10:51:00,42.3,7.0,30.07,NW,321,3.0,15.0,23,0.00,,,0.00,weatherlink.com 1.10,2013-02-13 17:51:00,
2013-02-13 11:06:00,41.1,8.0,30.07,WNW,292,8.0,19.0,26,0.00,,,0.00,weatherlink.com 1.10,2013-02-13 18:06:00,
2013-02-13 11:22:00,40.8,8.0,30.07,West,276,6.0,13.0,26,0.00,,,0.00,weatherlink.com 1.10,2013-02-13 18:22:00,
2013-02-13 11:36:00,40.9,10.0,30.08,WSW,257,10.0,17.0,28,0.00,,,0.00,weatherlink.com 1.10,2013-02-13 18:36:00,
2013-02-13 11:51:00,40.8,11.0,30.07,West,269,7.0,19.0,29,0.00,,,0.00,weatherlink.com 1.10,2013-02-13 18:51:00,
2013-02-13 12:07:00,41.0,10.0,30.06,WNW,298,6.0,22.0,28,0.00,,,0.00,weatherlink.com 1.10,2013-02-13 19:07:00,
2013-02-13 12:21:00,41.9,10.0,30.06,WNW,283,6.0,19.0,27,0.00,,,0.00,weatherlink.com 1.10,2013-02-13 19:21:00,
2013-02-13 12:37:00,42.2,10.0,30.07,WNW,291,8.0,19.0,27,0.00,,,0.00,weatherlink.com 1.10,2013-02-13 19:37:00,
2013-02-13 12:51:00,44.1,11.0,30.07,NW,310,5.0,17.0,26,0.00,,,0.00,weatherlink.com 1.10,2013-02-13 19:51:00,
2013-02-13 13:06:00,43.1,10.0,30.06,West,277,9.0,25.0,26,0.00,,,0.00,weatherlink.com 1.10,2013-02-13 20:06:00,
2013-02-13 13:21:00,43.3,10.0,30.06,NW,309,12.0,25.0,26,0.00,,,0.00,weatherlink.com 1.10,2013-02-13 20:21:00,
2013-02-13 13:36:00,43.2,10.0,30.05,WNW,285,15.0,24.0,26,0.00,,,0.00,weatherlink.com 1.10,2013-02-13 20:36:00,
2013-02-13 13:51:00,42.1,10.0,30.05,WNW,294,4.0,21.0,27,0.00,,,0.00,weatherlink.com 1.10,2013-02-13 20:51:00,
2013-02-13 14:06:00,42.3,10.0,30.05,WNW,300,6.0,19.0,27,0.00,,,0.00,weatherlink.com 1.10,2013-02-13 21:06:00,
2013-02-13 14:22:00,42.7,11.0,30.03,West,270,16.0,32.0,27,0.00,,,0.00,weatherlink.com 1.10,2013-02-13 21:22:00,
2013-02-13 14:36:00,42.7,11.0,30.03,West,277,3.0,18.0,27,0.00,,,0.00,weatherlink.com 1.10,2013-02-13 21:36:00,
2013-02-13 14:51:00,42.5,11.0,30.02,NW,306,14.0,21.0,28,0.00,,,0.00,weatherlink.com 1.10,2013-02-13 21:51:00,
2013-02-13 15:06:00,42.8,12.0,30.02,NW,312,10.0,18.0,29,0.00,,,0.00,weatherlink.com 1.10,2013-02-13 22:06:00,
2013-02-13 15:21:00,42.9,13.0,30.03,NNW,337,8.0,20.0,29,0.00,,,0.00,weatherlink.com 1.10,2013-02-13 22:21:00,
2013-02-13 15:36:00,42.9,13.0,30.04,NNW,339,3.0,9.0,29,0.00,,,0.00,weatherlink.com 1.10,2013-02-13 22:36:00,
2013-02-13 15:51:00,42.7,13.0,30.03,WNW,300,6.0,18.0,30,0.00,,,0.00,weatherlink.com 1.10,2013-02-13 22:51:00,
2013-02-13 16:06:00,42.7,12.0,30.02,WNW,300,7.0,16.0,29,0.00,,,0.00,weatherlink.com 1.10,2013-02-13 23:06:00,
2013-02-13 16:21:00,43.8,12.0,30.02,West,263,7.0,22.0,28,0.00,,,0.00,weatherlink.com 1.10,2013-02-13 23:21:00,
2013-02-13 16:36:00,44.2,11.0,30.01,WNW,284,5.0,27.0,26,0.00,,,0.00,weatherlink.com 1.10,2013-02-13 23:36:00,
2013-02-13 16:51:00,44.3,11.0,30.01,NW,314,7.0,17.0,26,0.00,,,0.00,weatherlink.com 1.10,2013-02-13 23:51:00,
2013-02-13 17:06:00,43.9,12.0,30.02,NW,312,5.0,19.0,27,0.00,,,0.00,weatherlink.com 1.10,2013-02-14 00:06:00,
2013-02-13 17:21:00,42.9,11.0,30.02,NNW,327,7.0,14.0,27,0.00,,,0.00,weatherlink.com 1.10,2013-02-14 00:21:00,
2013-02-13 17:36:00,42.2,11.0,30.02,WNW,300,2.0,15.0,28,0.00,,,0.00,weatherlink.com 1.10,2013-02-14 00:36:00,
2013-02-13 17:51:00,41.6,11.0,30.02,NW,304,5.0,16.0,29,0.00,,,0.00,weatherlink.com 1.10,2013-02-14 00:51:00,
2013-02-13 18:21:00,41.2,11.0,30.03,WNW,288,9.0,16.0,29,0.00,,,0.00,weatherlink.com 1.10,2013-02-14 01:21:00,
2013-02-13 18:36:00,40.8,11.0,30.04,NW,324,7.0,16.0,29,0.00,,,0.00,weatherlink.com 1.10,2013-02-14 01:36:00,
2013-02-13 18:51:00,40.9,10.0,30.04,WNW,292,3.0,16.0,28,0.00,,,0.00,weatherlink.com 1.10,2013-02-14 01:51:00,
2013-02-13 19:06:00,40.7,10.0,30.05,WNW,293,7.0,17.0,28,0.00,,,0.00,weatherlink.com 1.10,2013-02-14 02:06:00,
2013-02-13 19:21:00,40.4,10.0,30.06,West,280,5.0,14.0,29,0.00,,,0.00,weatherlink.com 1.10,2013-02-14 02:21:00,
2013-02-13 19:36:00,39.8,10.0,30.06,WNW,294,1.0,11.0,29,0.00,,,0.00,weatherlink.com 1.10,2013-02-14 02:36:00,
2013-02-13 19:51:00,39.4,9.0,30.06,WNW,288,4.0,9.0,29,0.00,,,0.00,weatherlink.com 1.10,2013-02-14 02:51:00,
2013-02-13 20:06:00,39.3,9.0,30.06,WNW,289,1.0,6.0,29,0.00,,,0.00,weatherlink.com 1.10,2013-02-14 03:06:00,
2013-02-13 20:21:00,38.6,9.0,30.06,West,277,2.0,4.0,29,0.00,,,0.00,weatherlink.com 1.10,2013-02-14 03:21:00,
2013-02-13 20:36:00,38.0,10.0,30.05,WNW,284,3.0,8.0,31,0.00,,,0.00,weatherlink.com 1.10,2013-02-14 03:36:00,
2013-02-13 20:51:00,39.1,10.0,30.05,WNW,283,9.0,11.0,30,0.00,,,0.00,weatherlink.com 1.10,2013-02-14 03:51:00,
2013-02-13 21:06:00,39.8,10.0,30.05,WNW,282,4.0,14.0,29,0.00,,,0.00,weatherlink.com 1.10,2013-02-14 04:06:00,
2013-02-13 21:21:00,39.8,11.0,30.06,WNW,286,5.0,12.0,30,0.00,,,0.00,weatherlink.com 1.10,2013-02-14 04:21:00,
2013-02-13 21:37:00,39.3,10.0,30.06,West,271,2.0,8.0,30,0.00,,,0.00,weatherlink.com 1.10,2013-02-14 04:37:00,
2013-02-13 22:07:00,38.1,10.0,30.06,West,264,1.0,7.0,31,0.00,,,0.00,weatherlink.com 1.10,2013-02-14 05:07:00,
2013-02-13 22:22:00,37.9,10.0,30.06,West,268,0.0,3.0,31,0.00,,,0.00,weatherlink.com 1.10,2013-02-14 05:22:00,
2013-02-13 22:37:00,38.6,9.0,30.06,West,273,2.0,10.0,29,0.00,,,0.00,weatherlink.com 1.10,2013-02-14 05:37:00,
2013-02-13 22:52:00,38.3,8.0,30.06,WSW,244,3.0,4.0,29,0.00,,,0.00,weatherlink.com 1.10,2013-02-14 05:52:00,
2013-02-13 23:07:00,36.9,9.0,30.06,SSW,211,1.0,5.0,31,0.00,,,0.00,weatherlink.com 1.10,2013-02-14 06:07:00,
2013-02-13 23:22:00,37.0,9.0,30.06,SW,223,1.0,4.0,31,0.00,,,0.00,weatherlink.com 1.10,2013-02-14 06:22:00,
2013-02-13 23:37:00,39.8,7.0,30.06,WNW,291,7.0,13.0,26,0.00,,,0.00,weatherlink.com 1.10,2013-02-14 06:37:00,
2013-02-13 23:52:00,41.0,8.0,30.05,WNW,284,4.0,13.0,25,0.00,,,0.00,weatherlink.com 1.10,2013-02-14 06:52:00,